sensor_id;sensor_type;location;lat;lon;timestamp;P1;durP1;ratioP1;P2;durP2;ratioP2
54665;SDS011;40566;50.006;36.180;2023-09-19T00:04:21;20.95;;;10.70;;
54665;SDS011;40566;50.006;36.180;2023-09-19T00:09:29;18.90;;;11.05;;
54665;SDS011;40566;50.006;36.180;2023-09-19T00:14:30;19.10;;;10.60;;
54665;SDS011;40566;50.006;36.180;2023-09-19T00:19:30;18.65;;;11.23;;
54665;SDS011;40566;50.006;36.180;2023-09-19T00:24:31;17.27;;;10.27;;
54665;SDS011;40566;50.006;36.180;2023-09-19T00:29:32;20.13;;;10.65;;
54665;SDS011;40566;50.006;36.180;2023-09-19T00:34:33;18.33;;;10.13;;
54665;SDS011;40566;50.006;36.180;2023-09-19T00:39:34;21.83;;;10.20;;
54665;SDS011;40566;50.006;36.180;2023-09-19T00:44:35;19.60;;;9.93;;
54665;SDS011;40566;50.006;36.180;2023-09-19T00:49:36;19.25;;;11.07;;
54665;SDS011;40566;50.006;36.180;2023-09-19T00:54:38;20.48;;;10.50;;
54665;SDS011;40566;50.006;36.180;2023-09-19T00:59:39;18.95;;;10.50;;
54665;SDS011;40566;50.006;36.180;2023-09-19T01:04:40;18.75;;;11.02;;
54665;SDS011;40566;50.006;36.180;2023-09-19T01:09:41;19.45;;;10.40;;
54665;SDS011;40566;50.006;36.180;2023-09-19T01:25:33;17.48;;;9.93;;
54665;SDS011;40566;50.006;36.180;2023-09-19T01:30:57;19.83;;;10.38;;
54665;SDS011;40566;50.006;36.180;2023-09-19T01:36:00;23.55;;;11.05;;
54665;SDS011;40566;50.006;36.180;2023-09-19T01:41:02;20.30;;;10.65;;
54665;SDS011;40566;50.006;36.180;2023-09-19T01:51:28;24.08;;;11.32;;
54665;SDS011;40566;50.006;36.180;2023-09-19T02:02:01;21.02;;;10.52;;
54665;SDS011;40566;50.006;36.180;2023-09-19T02:07:03;20.05;;;11.30;;
54665;SDS011;40566;50.006;36.180;2023-09-19T02:12:05;18.08;;;10.43;;
54665;SDS011;40566;50.006;36.180;2023-09-19T02:17:06;18.88;;;10.05;;
54665;SDS011;40566;50.006;36.180;2023-09-19T02:22:07;18.88;;;11.20;;
54665;SDS011;40566;50.006;36.180;2023-09-19T02:27:10;22.33;;;11.50;;
54665;SDS011;40566;50.006;36.180;2023-09-19T02:32:12;19.25;;;10.55;;
54665;SDS011;40566;50.006;36.180;2023-09-19T02:37:13;26.10;;;11.57;;
54665;SDS011;40566;50.006;36.180;2023-09-19T02:42:16;19.40;;;9.63;;
54665;SDS011;40566;50.006;36.180;2023-09-19T02:47:16;17.92;;;9.20;;
54665;SDS011;40566;50.006;36.180;2023-09-19T02:52:17;19.05;;;8.63;;
54665;SDS011;40566;50.006;36.180;2023-09-19T02:57:18;16.60;;;9.10;;
54665;SDS011;40566;50.006;36.180;2023-09-19T03:08:35;15.38;;;8.70;;
54665;SDS011;40566;50.006;36.180;2023-09-19T03:13:37;15.10;;;8.43;;
54665;SDS011;40566;50.006;36.180;2023-09-19T03:18:38;15.60;;;8.23;;
54665;SDS011;40566;50.006;36.180;2023-09-19T03:23:39;17.50;;;9.45;;
54665;SDS011;40566;50.006;36.180;2023-09-19T03:28:41;17.95;;;9.95;;
54665;SDS011;40566;50.006;36.180;2023-09-19T03:33:42;18.70;;;9.23;;
54665;SDS011;40566;50.006;36.180;2023-09-19T03:38:43;18.33;;;9.38;;
54665;SDS011;40566;50.006;36.180;2023-09-19T03:43:44;16.65;;;9.10;;
54665;SDS011;40566;50.006;36.180;2023-09-19T03:48:45;15.02;;;8.57;;
54665;SDS011;40566;50.006;36.180;2023-09-19T03:53:46;16.20;;;9.20;;
54665;SDS011;40566;50.006;36.180;2023-09-19T03:58:46;16.08;;;9.25;;
54665;SDS011;40566;50.006;36.180;2023-09-19T04:03:47;14.25;;;8.00;;
54665;SDS011;40566;50.006;36.180;2023-09-19T04:08:47;13.98;;;7.47;;
54665;SDS011;40566;50.006;36.180;2023-09-19T04:13:48;14.52;;;7.53;;
54665;SDS011;40566;50.006;36.180;2023-09-19T04:18:49;15.80;;;8.40;;
54665;SDS011;40566;50.006;36.180;2023-09-19T04:23:49;12.80;;;7.30;;
54665;SDS011;40566;50.006;36.180;2023-09-19T04:28:50;14.63;;;7.85;;
54665;SDS011;40566;50.006;36.180;2023-09-19T04:33:51;15.02;;;8.20;;
54665;SDS011;40566;50.006;36.180;2023-09-19T04:38:52;16.73;;;8.90;;
54665;SDS011;40566;50.006;36.180;2023-09-19T04:43:53;19.13;;;9.25;;
54665;SDS011;40566;50.006;36.180;2023-09-19T04:48:55;20.63;;;10.90;;
54665;SDS011;40566;50.006;36.180;2023-09-19T04:53:56;23.48;;;11.10;;
54665;SDS011;40566;50.006;36.180;2023-09-19T04:58:57;20.77;;;10.73;;
54665;SDS011;40566;50.006;36.180;2023-09-19T05:04:00;21.63;;;11.63;;
54665;SDS011;40566;50.006;36.180;2023-09-19T05:09:01;23.17;;;10.80;;
54665;SDS011;40566;50.006;36.180;2023-09-19T05:14:05;20.15;;;10.00;;
54665;SDS011;40566;50.006;36.180;2023-09-19T05:19:05;17.25;;;9.13;;
54665;SDS011;40566;50.006;36.180;2023-09-19T05:24:06;16.23;;;8.95;;
54665;SDS011;40566;50.006;36.180;2023-09-19T05:29:06;15.68;;;8.45;;
54665;SDS011;40566;50.006;36.180;2023-09-19T05:34:09;15.13;;;8.85;;
54665;SDS011;40566;50.006;36.180;2023-09-19T05:39:10;17.92;;;10.10;;
54665;SDS011;40566;50.006;36.180;2023-09-19T05:44:10;16.95;;;9.40;;
54665;SDS011;40566;50.006;36.180;2023-09-19T05:49:11;16.80;;;9.70;;
54665;SDS011;40566;50.006;36.180;2023-09-19T05:54:11;18.08;;;10.00;;
54665;SDS011;40566;50.006;36.180;2023-09-19T05:59:12;21.92;;;12.38;;
54665;SDS011;40566;50.006;36.180;2023-09-19T06:04:16;23.95;;;13.00;;
54665;SDS011;40566;50.006;36.180;2023-09-19T06:09:16;20.10;;;12.13;;
54665;SDS011;40566;50.006;36.180;2023-09-19T06:14:17;24.98;;;13.98;;
54665;SDS011;40566;50.006;36.180;2023-09-19T06:19:18;23.25;;;14.27;;
54665;SDS011;40566;50.006;36.180;2023-09-19T06:24:18;24.70;;;14.07;;
54665;SDS011;40566;50.006;36.180;2023-09-19T06:29:21;23.52;;;13.80;;
54665;SDS011;40566;50.006;36.180;2023-09-19T06:34:23;22.42;;;12.70;;
54665;SDS011;40566;50.006;36.180;2023-09-19T06:39:26;21.95;;;11.30;;
54665;SDS011;40566;50.006;36.180;2023-09-19T06:44:26;18.38;;;10.45;;
54665;SDS011;40566;50.006;36.180;2023-09-19T06:49:29;17.35;;;9.45;;
54665;SDS011;40566;50.006;36.180;2023-09-19T06:54:30;18.73;;;10.48;;
54665;SDS011;40566;50.006;36.180;2023-09-19T06:59:31;28.67;;;13.68;;
54665;SDS011;40566;50.006;36.180;2023-09-19T07:04:32;32.72;;;15.43;;
54665;SDS011;40566;50.006;36.180;2023-09-19T07:09:33;26.73;;;12.40;;
54665;SDS011;40566;50.006;36.180;2023-09-19T07:14:33;22.40;;;11.35;;
54665;SDS011;40566;50.006;36.180;2023-09-19T07:19:34;23.20;;;11.20;;
54665;SDS011;40566;50.006;36.180;2023-09-19T07:24:35;24.85;;;12.25;;
54665;SDS011;40566;50.006;36.180;2023-09-19T07:29:36;19.38;;;10.35;;
54665;SDS011;40566;50.006;36.180;2023-09-19T07:34:38;16.10;;;8.93;;
54665;SDS011;40566;50.006;36.180;2023-09-19T07:39:40;14.60;;;8.00;;
54665;SDS011;40566;50.006;36.180;2023-09-19T07:44:41;18.80;;;9.80;;
54665;SDS011;40566;50.006;36.180;2023-09-19T07:49:42;18.40;;;8.93;;
54665;SDS011;40566;50.006;36.180;2023-09-19T07:54:43;17.05;;;6.40;;
54665;SDS011;40566;50.006;36.180;2023-09-19T07:59:44;12.38;;;6.15;;
54665;SDS011;40566;50.006;36.180;2023-09-19T08:04:45;16.30;;;7.20;;
54665;SDS011;40566;50.006;36.180;2023-09-19T08:09:46;20.88;;;7.78;;
54665;SDS011;40566;50.006;36.180;2023-09-19T08:14:48;14.35;;;6.90;;
54665;SDS011;40566;50.006;36.180;2023-09-19T08:19:50;12.68;;;6.32;;
54665;SDS011;40566;50.006;36.180;2023-09-19T08:24:52;14.90;;;6.30;;
54665;SDS011;40566;50.006;36.180;2023-09-19T08:29:53;11.15;;;5.63;;
54665;SDS011;40566;50.006;36.180;2023-09-19T08:34:53;11.30;;;4.63;;
54665;SDS011;40566;50.006;36.180;2023-09-19T08:39:54;11.20;;;5.15;;
54665;SDS011;40566;50.006;36.180;2023-09-19T08:44:55;10.27;;;5.55;;
54665;SDS011;40566;50.006;36.180;2023-09-19T08:50:04;8.93;;;5.00;;
54665;SDS011;40566;50.006;36.180;2023-09-19T08:55:14;8.50;;;4.20;;
54665;SDS011;40566;50.006;36.180;2023-09-19T09:00:22;7.68;;;4.07;;
54665;SDS011;40566;50.006;36.180;2023-09-19T09:05:27;9.00;;;4.68;;
54665;SDS011;40566;50.006;36.180;2023-09-19T09:10:30;8.73;;;4.82;;
54665;SDS011;40566;50.006;36.180;2023-09-19T09:15:30;9.93;;;5.00;;
54665;SDS011;40566;50.006;36.180;2023-09-19T09:20:34;10.43;;;5.00;;
54665;SDS011;40566;50.006;36.180;2023-09-19T09:30:57;8.32;;;4.10;;
54665;SDS011;40566;50.006;36.180;2023-09-19T09:41:37;9.20;;;4.63;;
54665;SDS011;40566;50.006;36.180;2023-09-19T09:46:42;7.70;;;4.00;;
54665;SDS011;40566;50.006;36.180;2023-09-19T09:51:59;8.65;;;4.70;;
54665;SDS011;40566;50.006;36.180;2023-09-19T09:57:08;8.50;;;4.30;;
54665;SDS011;40566;50.006;36.180;2023-09-19T10:02:18;7.97;;;4.55;;
54665;SDS011;40566;50.006;36.180;2023-09-19T10:07:42;8.10;;;4.07;;
54665;SDS011;40566;50.006;36.180;2023-09-19T10:12:49;8.75;;;4.40;;
54665;SDS011;40566;50.006;36.180;2023-09-19T10:18:05;8.32;;;4.25;;
54665;SDS011;40566;50.006;36.180;2023-09-19T10:23:11;8.45;;;4.47;;
54665;SDS011;40566;50.006;36.180;2023-09-19T10:28:21;7.00;;;3.95;;
54665;SDS011;40566;50.006;36.180;2023-09-19T10:33:22;7.90;;;4.22;;
54665;SDS011;40566;50.006;36.180;2023-09-19T10:38:27;7.70;;;4.05;;
54665;SDS011;40566;50.006;36.180;2023-09-19T10:43:30;7.78;;;4.07;;
54665;SDS011;40566;50.006;36.180;2023-09-19T10:48:36;8.80;;;3.92;;
54665;SDS011;40566;50.006;36.180;2023-09-19T10:53:55;7.32;;;4.05;;
54665;SDS011;40566;50.006;36.180;2023-09-19T11:09:47;7.95;;;3.88;;
54665;SDS011;40566;50.006;36.180;2023-09-19T11:14:53;7.18;;;3.97;;
54665;SDS011;40566;50.006;36.180;2023-09-19T11:30:47;9.05;;;4.75;;
54665;SDS011;40566;50.006;36.180;2023-09-19T11:51:52;9.75;;;3.97;;
54665;SDS011;40566;50.006;36.180;2023-09-19T11:56:52;7.85;;;3.80;;
54665;SDS011;40566;50.006;36.180;2023-09-19T12:02:00;6.68;;;3.50;;
54665;SDS011;40566;50.006;36.180;2023-09-19T12:12:22;6.63;;;3.50;;
54665;SDS011;40566;50.006;36.180;2023-09-19T12:22:41;7.43;;;3.88;;
54665;SDS011;40566;50.006;36.180;2023-09-19T12:32:48;6.88;;;3.70;;
54665;SDS011;40566;50.006;36.180;2023-09-19T12:37:53;7.40;;;3.90;;
54665;SDS011;40566;50.006;36.180;2023-09-19T12:42:55;7.90;;;4.25;;
54665;SDS011;40566;50.006;36.180;2023-09-19T12:53:34;7.35;;;3.83;;
54665;SDS011;40566;50.006;36.180;2023-09-19T13:09:28;7.82;;;4.03;;
54665;SDS011;40566;50.006;36.180;2023-09-19T13:14:35;8.05;;;4.13;;
54665;SDS011;40566;50.006;36.180;2023-09-19T13:19:41;8.75;;;4.43;;
54665;SDS011;40566;50.006;36.180;2023-09-19T13:24:54;7.40;;;3.78;;
54665;SDS011;40566;50.006;36.180;2023-09-19T13:29:55;9.05;;;4.40;;
54665;SDS011;40566;50.006;36.180;2023-09-19T13:34:58;9.68;;;4.70;;
54665;SDS011;40566;50.006;36.180;2023-09-19T13:39:59;8.30;;;4.55;;
54665;SDS011;40566;50.006;36.180;2023-09-19T13:45:00;9.77;;;4.53;;
54665;SDS011;40566;50.006;36.180;2023-09-19T13:50:01;8.23;;;4.40;;
54665;SDS011;40566;50.006;36.180;2023-09-19T13:55:04;8.32;;;4.20;;
54665;SDS011;40566;50.006;36.180;2023-09-19T14:00:07;7.97;;;4.47;;
54665;SDS011;40566;50.006;36.180;2023-09-19T14:05:10;8.30;;;4.43;;
54665;SDS011;40566;50.006;36.180;2023-09-19T14:10:15;7.88;;;4.18;;
54665;SDS011;40566;50.006;36.180;2023-09-19T14:15:15;11.73;;;5.85;;
54665;SDS011;40566;50.006;36.180;2023-09-19T14:20:16;11.68;;;5.38;;
54665;SDS011;40566;50.006;36.180;2023-09-19T14:25:17;10.88;;;5.47;;
54665;SDS011;40566;50.006;36.180;2023-09-19T14:30:17;10.60;;;5.05;;
54665;SDS011;40566;50.006;36.180;2023-09-19T14:35:19;11.88;;;5.88;;
54665;SDS011;40566;50.006;36.180;2023-09-19T14:40:21;9.07;;;4.90;;
54665;SDS011;40566;50.006;36.180;2023-09-19T14:45:22;9.45;;;4.65;;
54665;SDS011;40566;50.006;36.180;2023-09-19T14:50:25;8.65;;;4.43;;
54665;SDS011;40566;50.006;36.180;2023-09-19T14:55:26;10.90;;;5.88;;
54665;SDS011;40566;50.006;36.180;2023-09-19T15:00:29;11.75;;;5.45;;
54665;SDS011;40566;50.006;36.180;2023-09-19T15:05:31;9.02;;;4.82;;
54665;SDS011;40566;50.006;36.180;2023-09-19T15:10:31;11.27;;;5.70;;
54665;SDS011;40566;50.006;36.180;2023-09-19T15:15:32;8.98;;;5.35;;
54665;SDS011;40566;50.006;36.180;2023-09-19T15:20:33;9.68;;;5.18;;
54665;SDS011;40566;50.006;36.180;2023-09-19T15:25:33;9.68;;;5.20;;
54665;SDS011;40566;50.006;36.180;2023-09-19T15:30:38;10.70;;;5.60;;
54665;SDS011;40566;50.006;36.180;2023-09-19T15:35:38;10.88;;;5.63;;
54665;SDS011;40566;50.006;36.180;2023-09-19T15:40:45;10.98;;;6.10;;
54665;SDS011;40566;50.006;36.180;2023-09-19T15:45:47;10.82;;;6.32;;
54665;SDS011;40566;50.006;36.180;2023-09-19T15:50:49;11.00;;;6.28;;
54665;SDS011;40566;50.006;36.180;2023-09-19T15:55:50;15.77;;;7.40;;
54665;SDS011;40566;50.006;36.180;2023-09-19T16:00:52;12.23;;;6.97;;
54665;SDS011;40566;50.006;36.180;2023-09-19T16:05:52;14.07;;;6.78;;
54665;SDS011;40566;50.006;36.180;2023-09-19T16:10:53;11.27;;;6.35;;
54665;SDS011;40566;50.006;36.180;2023-09-19T16:15:54;11.32;;;5.57;;
54665;SDS011;40566;50.006;36.180;2023-09-19T16:21:00;16.27;;;7.65;;
54665;SDS011;40566;50.006;36.180;2023-09-19T16:26:02;14.70;;;7.20;;
54665;SDS011;40566;50.006;36.180;2023-09-19T16:31:07;15.98;;;7.50;;
54665;SDS011;40566;50.006;36.180;2023-09-19T16:36:09;17.70;;;7.85;;
54665;SDS011;40566;50.006;36.180;2023-09-19T16:41:11;14.82;;;7.72;;
54665;SDS011;40566;50.006;36.180;2023-09-19T16:46:13;15.43;;;7.70;;
54665;SDS011;40566;50.006;36.180;2023-09-19T16:51:16;17.00;;;7.82;;
54665;SDS011;40566;50.006;36.180;2023-09-19T16:56:20;18.58;;;8.60;;
54665;SDS011;40566;50.006;36.180;2023-09-19T17:01:20;14.38;;;7.95;;
54665;SDS011;40566;50.006;36.180;2023-09-19T17:06:24;15.10;;;8.40;;
54665;SDS011;40566;50.006;36.180;2023-09-19T17:11:25;14.98;;;8.70;;
54665;SDS011;40566;50.006;36.180;2023-09-19T17:16:26;16.80;;;9.07;;
54665;SDS011;40566;50.006;36.180;2023-09-19T17:21:30;16.65;;;9.88;;
54665;SDS011;40566;50.006;36.180;2023-09-19T17:26:34;19.05;;;10.68;;
54665;SDS011;40566;50.006;36.180;2023-09-19T17:31:36;18.33;;;10.13;;
54665;SDS011;40566;50.006;36.180;2023-09-19T17:36:38;19.90;;;10.27;;
54665;SDS011;40566;50.006;36.180;2023-09-19T17:41:40;21.55;;;10.70;;
54665;SDS011;40566;50.006;36.180;2023-09-19T17:46:41;19.45;;;10.02;;
54665;SDS011;40566;50.006;36.180;2023-09-19T17:51:42;21.92;;;10.57;;
54665;SDS011;40566;50.006;36.180;2023-09-19T17:56:42;21.88;;;11.57;;
54665;SDS011;40566;50.006;36.180;2023-09-19T18:01:44;21.35;;;10.00;;
54665;SDS011;40566;50.006;36.180;2023-09-19T18:06:45;19.85;;;10.68;;
54665;SDS011;40566;50.006;36.180;2023-09-19T18:11:48;19.25;;;10.73;;
54665;SDS011;40566;50.006;36.180;2023-09-19T18:16:49;20.05;;;11.27;;
54665;SDS011;40566;50.006;36.180;2023-09-19T18:21:52;20.83;;;11.32;;
54665;SDS011;40566;50.006;36.180;2023-09-19T18:26:53;23.30;;;11.23;;
54665;SDS011;40566;50.006;36.180;2023-09-19T18:31:54;20.80;;;11.77;;
54665;SDS011;40566;50.006;36.180;2023-09-19T18:36:54;22.98;;;12.23;;
54665;SDS011;40566;50.006;36.180;2023-09-19T18:41:58;22.40;;;12.68;;
54665;SDS011;40566;50.006;36.180;2023-09-19T18:46:59;22.17;;;12.60;;
54665;SDS011;40566;50.006;36.180;2023-09-19T18:52:03;21.60;;;13.05;;
54665;SDS011;40566;50.006;36.180;2023-09-19T18:57:08;23.75;;;14.07;;
54665;SDS011;40566;50.006;36.180;2023-09-19T19:02:11;27.52;;;14.43;;
54665;SDS011;40566;50.006;36.180;2023-09-19T19:07:12;29.38;;;14.13;;
54665;SDS011;40566;50.006;36.180;2023-09-19T19:12:16;27.80;;;13.63;;
54665;SDS011;40566;50.006;36.180;2023-09-19T19:17:17;35.65;;;15.13;;
54665;SDS011;40566;50.006;36.180;2023-09-19T19:22:18;26.55;;;14.55;;
54665;SDS011;40566;50.006;36.180;2023-09-19T19:27:21;28.33;;;13.70;;
54665;SDS011;40566;50.006;36.180;2023-09-19T19:32:21;30.13;;;14.73;;
54665;SDS011;40566;50.006;36.180;2023-09-19T19:37:26;29.33;;;14.38;;
54665;SDS011;40566;50.006;36.180;2023-09-19T19:42:31;28.60;;;14.18;;
54665;SDS011;40566;50.006;36.180;2023-09-19T19:47:32;29.23;;;13.57;;
54665;SDS011;40566;50.006;36.180;2023-09-19T19:52:32;29.20;;;13.90;;
54665;SDS011;40566;50.006;36.180;2023-09-19T19:57:33;26.73;;;14.48;;
54665;SDS011;40566;50.006;36.180;2023-09-19T20:02:35;25.60;;;14.32;;
54665;SDS011;40566;50.006;36.180;2023-09-19T20:07:35;23.80;;;13.18;;
54665;SDS011;40566;50.006;36.180;2023-09-19T20:12:36;26.17;;;14.60;;
54665;SDS011;40566;50.006;36.180;2023-09-19T20:17:37;40.70;;;22.25;;
54665;SDS011;40566;50.006;36.180;2023-09-19T20:22:38;36.60;;;19.25;;
54665;SDS011;40566;50.006;36.180;2023-09-19T20:27:39;34.85;;;16.77;;
54665;SDS011;40566;50.006;36.180;2023-09-19T20:32:40;30.38;;;17.60;;
54665;SDS011;40566;50.006;36.180;2023-09-19T20:37:44;30.10;;;16.90;;
54665;SDS011;40566;50.006;36.180;2023-09-19T20:42:49;25.55;;;14.68;;
54665;SDS011;40566;50.006;36.180;2023-09-19T20:47:50;29.77;;;15.18;;
54665;SDS011;40566;50.006;36.180;2023-09-19T20:52:54;26.13;;;14.77;;
54665;SDS011;40566;50.006;36.180;2023-09-19T20:57:55;27.00;;;13.27;;
54665;SDS011;40566;50.006;36.180;2023-09-19T21:02:55;24.88;;;13.65;;
54665;SDS011;40566;50.006;36.180;2023-09-19T21:07:56;24.77;;;12.13;;
54665;SDS011;40566;50.006;36.180;2023-09-19T21:12:56;24.05;;;13.20;;
54665;SDS011;40566;50.006;36.180;2023-09-19T21:17:58;23.90;;;12.68;;
54665;SDS011;40566;50.006;36.180;2023-09-19T21:22:59;20.92;;;12.07;;
54665;SDS011;40566;50.006;36.180;2023-09-19T21:28:00;21.85;;;12.70;;
54665;SDS011;40566;50.006;36.180;2023-09-19T21:33:01;23.52;;;12.30;;
54665;SDS011;40566;50.006;36.180;2023-09-19T21:38:01;25.20;;;13.40;;
54665;SDS011;40566;50.006;36.180;2023-09-19T21:43:02;23.60;;;12.35;;
54665;SDS011;40566;50.006;36.180;2023-09-19T21:48:05;24.83;;;13.57;;
54665;SDS011;40566;50.006;36.180;2023-09-19T21:53:08;26.55;;;13.70;;
54665;SDS011;40566;50.006;36.180;2023-09-19T21:58:08;26.48;;;13.75;;
54665;SDS011;40566;50.006;36.180;2023-09-19T22:03:09;26.70;;;14.80;;
54665;SDS011;40566;50.006;36.180;2023-09-19T22:08:10;33.53;;;17.33;;
54665;SDS011;40566;50.006;36.180;2023-09-19T22:13:11;34.35;;;17.25;;
54665;SDS011;40566;50.006;36.180;2023-09-19T22:18:15;32.20;;;17.33;;
54665;SDS011;40566;50.006;36.180;2023-09-19T22:23:20;32.55;;;16.48;;
54665;SDS011;40566;50.006;36.180;2023-09-19T22:28:36;28.42;;;15.35;;
54665;SDS011;40566;50.006;36.180;2023-09-19T22:33:41;25.13;;;15.05;;
54665;SDS011;40566;50.006;36.180;2023-09-19T22:38:42;26.23;;;13.88;;
54665;SDS011;40566;50.006;36.180;2023-09-19T22:43:43;26.23;;;13.70;;
54665;SDS011;40566;50.006;36.180;2023-09-19T22:48:48;25.48;;;12.98;;
54665;SDS011;40566;50.006;36.180;2023-09-19T22:53:50;21.38;;;12.80;;
54665;SDS011;40566;50.006;36.180;2023-09-19T22:58:57;23.07;;;13.33;;
54665;SDS011;40566;50.006;36.180;2023-09-19T23:03:58;23.23;;;12.93;;
54665;SDS011;40566;50.006;36.180;2023-09-19T23:09:15;22.50;;;13.02;;
54665;SDS011;40566;50.006;36.180;2023-09-19T23:14:21;26.00;;;14.30;;
54665;SDS011;40566;50.006;36.180;2023-09-19T23:19:29;24.77;;;14.13;;
54665;SDS011;40566;50.006;36.180;2023-09-19T23:24:30;28.00;;;14.30;;
54665;SDS011;40566;50.006;36.180;2023-09-19T23:29:35;25.98;;;15.52;;
54665;SDS011;40566;50.006;36.180;2023-09-19T23:34:39;31.50;;;16.85;;
54665;SDS011;40566;50.006;36.180;2023-09-19T23:39:39;31.95;;;17.77;;
54665;SDS011;40566;50.006;36.180;2023-09-19T23:44:44;31.88;;;18.30;;
54665;SDS011;40566;50.006;36.180;2023-09-19T23:49:48;32.72;;;19.50;;
54665;SDS011;40566;50.006;36.180;2023-09-19T23:54:49;34.40;;;20.50;;
54665;SDS011;40566;50.006;36.180;2023-09-19T23:59:50;36.47;;;20.85;;
